Pagrindinis puslapis
METAR-TAF:

METAR-TAF

Oro uostai :

Waco, Teksasas, Jungtinės Amerikos Valstijos

platuma: 31-37-02N, ilguma: 097-13-40W, Aukštis: 157 m

Dabartinis oras

Ataskaita buvo paskelbta 45 minutes, ne 20:51 UTC
Vėjas 13 kt iš Šiaurės Vakarų su gūsio iki 22 kt
Temperatūra 34°C
Drėgmė 20%
Slėgis 1013 hPa
Matomumas: 16.1 km
Giedras dangus

METAR: KACT 262051Z 31013G22KT 10SM CLR 34/08 A2990 RMK AO2 SLP119 T03440083 56019

Laikas: 16:36 (21:36 UTC)

Prognozė

Ataskaita buvo paskelbta 41 minutes, ne 20:55 UTC
Prognozė galioja nuo 26 metu 21 UTC su 27 metu 18 UTC
Vėjas 12 kt iš Vakarų/Šiaurės Vakarų su gūsio iki 22 kt
Matomumas: 10 km
Giedras dangus
Nuo 27 metu 0000 UTC
Vėjas 6 kt iš Šiaurės/Šiaurės Vakarų
Matomumas: 10 km
Giedras dangus
Nuo 27 metu 0300 UTC
Vėjas 3 kt nuo kintamojo kryptimis
Matomumas: 10 km
Giedras dangus

TAF: KACT 262055Z 2621/2718 29012G22KT P6SM SKC FM270000 34006KT P6SM SKC FM270300 VRB03KT P6SM SKC

Orai ataskaitas ir orų prognozės (METAR, TAF).

turimą stotys yra geltonos ir raudonos taškus žemėlapyje.

Perkelti pele per norėdami pamatyti stoties vardą.

Tada spustelėkite, norėdami matyti oro stebėjimo ir prognozės.

Norėdami pakeisti žemėlapį: spustelėkite ant žalios mygtukų su juodo kryžiaus žemyn,; žalią mygtuką su brūkšneliu, jei norite nutolinti; arba žalių rodyklių gretimoms žemėlapius.


METAR-TAF: